createdAt,value
2017-11-05T17:11:34.462Z,14.80
2017-11-05T17:14:02.773Z,14.50
2017-11-05T17:16:31.077Z,14.00
2017-11-05T17:18:59.393Z,14.10
2017-11-05T17:21:28.529Z,13.50
2017-11-05T17:23:56.844Z,13.20
2017-11-05T17:26:25.134Z,13.40
2017-11-05T17:28:54.311Z,13.10
2017-11-05T17:31:22.625Z,13.20
2017-11-05T17:33:51.014Z,12.70
2017-11-05T17:36:19.274Z,12.50
2017-11-05T17:38:47.581Z,12.70
2017-11-05T17:41:19.615Z,12.40
2017-11-05T17:43:47.911Z,12.60
2017-11-05T17:46:16.159Z,12.50
2017-11-05T17:48:44.401Z,12.20
2017-11-05T17:51:12.715Z,11.90
2017-11-05T17:53:40.974Z,12.20
2017-11-05T17:56:09.223Z,12.20
2017-11-05T17:58:37.551Z,12.00
2017-11-05T18:01:05.839Z,11.90
2017-11-05T18:03:34.078Z,11.90
2017-11-05T18:06:02.400Z,11.90
2017-11-05T18:08:31.732Z,11.60
2017-11-05T18:11:00.069Z,11.60
2017-11-05T18:13:29.151Z,11.50
2017-11-05T18:15:57.401Z,11.70
2017-11-05T18:18:25.676Z,11.30
2017-11-05T18:20:53.972Z,11.60
2017-11-05T18:23:22.228Z,11.20
2017-11-05T18:25:50.505Z,11.20
2017-11-05T18:28:18.824Z,11.50
2017-11-05T18:30:47.186Z,11.40
2017-11-05T18:33:15.442Z,11.30
2017-11-05T18:35:44.744Z,11.40
2017-11-05T18:38:13.039Z,11.30
2017-11-05T18:40:41.435Z,11.00
2017-11-05T18:43:09.717Z,11.10
2017-11-05T18:45:38.449Z,11.50
2017-11-05T18:48:06.737Z,11.30
2017-11-05T18:50:35.055Z,11.20
2017-11-05T18:53:03.420Z,11.30
2017-11-05T18:55:31.715Z,11.30
2017-11-05T18:58:00.170Z,11.10
2017-11-05T19:00:28.514Z,11.30
2017-11-05T19:02:56.967Z,11.20
2017-11-05T19:05:25.363Z,11.20
2017-11-05T19:07:53.704Z,10.80
2017-11-05T19:10:21.930Z,10.90
2017-11-05T19:12:50.199Z,10.90
2017-11-05T19:15:18.567Z,11.00
2017-11-05T19:17:47.473Z,10.70
2017-11-05T19:20:15.750Z,11.00
2017-11-05T19:22:44.077Z,10.80
2017-11-05T19:25:12.545Z,11.00
2017-11-05T19:27:40.845Z,10.90
2017-11-05T19:30:10.778Z,10.90
2017-11-05T19:32:39.900Z,10.80
2017-11-05T19:35:08.233Z,10.70
2017-11-05T19:37:36.660Z,10.80
2017-11-05T19:40:04.941Z,11.00
2017-11-05T19:42:33.233Z,10.90
2017-11-05T19:45:01.487Z,10.90
2017-11-05T19:47:38.517Z,10.90
2017-11-05T19:50:06.745Z,10.80
2017-11-05T19:52:35.074Z,11.00
2017-11-05T19:55:05.034Z,10.80
2017-11-05T19:57:33.277Z,10.80
2017-11-05T20:00:01.579Z,10.80
2017-11-05T20:02:29.925Z,10.90
2017-11-05T20:04:59.100Z,10.80
2017-11-05T20:07:27.371Z,10.90
2017-11-05T20:09:56.610Z,10.60
2017-11-05T20:12:25.619Z,10.90
2017-11-05T20:14:54.696Z,10.80
2017-11-05T20:17:23.715Z,10.50
2017-11-05T20:19:51.972Z,10.60
2017-11-05T20:22:21.021Z,10.60
2017-11-05T20:24:50.113Z,10.40
2017-11-05T20:27:18.393Z,10.50
2017-11-05T20:29:46.710Z,10.40
2017-11-05T20:32:15.770Z,10.30
2017-11-05T20:34:45.026Z,10.40
2017-11-05T20:37:14.286Z,10.60
2017-11-05T20:39:42.573Z,10.50
2017-11-05T20:42:10.878Z,10.30
2017-11-05T20:44:39.148Z,10.50
2017-11-05T20:47:07.603Z,10.60
2017-11-05T20:49:35.850Z,10.60
2017-11-05T20:52:04.146Z,10.30
2017-11-05T20:54:32.415Z,10.10
2017-11-05T20:57:02.254Z,10.00
2017-11-05T20:59:31.296Z,10.40
2017-11-05T21:02:00.555Z,10.00
2017-11-05T21:04:28.863Z,10.00
2017-11-05T21:06:57.187Z,10.30
2017-11-05T21:09:25.478Z,10.20
2017-11-05T21:11:54.673Z,10.50
2017-11-05T21:14:24.948Z,10.40
2017-11-05T21:16:54.393Z,10.20
2017-11-05T21:19:22.699Z,10.50
2017-11-05T21:21:51.755Z,10.10
2017-11-05T21:24:21.314Z,10.00
2017-11-05T21:26:49.579Z,10.00
2017-11-05T21:29:17.873Z,10.00
2017-11-05T21:31:46.215Z,10.10
2017-11-05T21:34:16.100Z,9.80
2017-11-05T21:36:45.282Z,9.80
2017-11-05T21:39:13.582Z,10.10
2017-11-05T21:41:41.830Z,9.70
2017-11-05T21:44:10.136Z,9.80
2017-11-05T21:46:38.363Z,9.70
2017-11-05T21:49:06.615Z,9.80
2017-11-05T21:51:35.655Z,9.60
2017-11-05T21:54:04.891Z,9.50
2017-11-05T21:56:33.138Z,9.70
2017-11-05T21:59:01.447Z,9.40
2017-11-05T22:01:29.685Z,9.70
2017-11-05T22:03:58.942Z,9.60
2017-11-05T22:06:27.216Z,9.50
2017-11-05T22:08:55.462Z,9.50
2017-11-05T22:11:24.494Z,9.40
2017-11-05T22:13:52.761Z,9.50
2017-11-05T22:16:21.024Z,9.30
2017-11-05T22:18:49.309Z,9.40
2017-11-05T22:21:17.562Z,9.50
2017-11-05T22:23:46.034Z,9.70
2017-11-05T22:26:14.516Z,9.50
2017-11-05T22:28:42.785Z,9.70
2017-11-05T22:31:11.044Z,9.30
2017-11-05T22:33:40.169Z,9.50
2017-11-05T22:36:08.989Z,9.40
2017-11-05T22:38:37.292Z,9.30
2017-11-05T22:41:05.589Z,9.40
2017-11-05T22:43:33.862Z,9.50
2017-11-05T22:46:03.060Z,9.30
2017-11-05T22:48:31.345Z,9.30
2017-11-05T22:51:00.453Z,9.50
2017-11-05T22:53:29.483Z,9.30
2017-11-05T22:55:57.757Z,9.40
2017-11-05T22:58:26.009Z,9.30
2017-11-05T23:00:54.274Z,9.30
2017-11-05T23:03:22.532Z,9.50
2017-11-05T23:05:50.770Z,9.40
2017-11-05T23:08:19.062Z,9.30
2017-11-05T23:10:47.324Z,9.40
2017-11-05T23:13:16.436Z,9.40
2017-11-05T23:15:45.522Z,9.10
2017-11-05T23:18:14.771Z,9.10
2017-11-05T23:20:44.794Z,9.30
2017-11-05T23:23:13.858Z,9.00
2017-11-05T23:25:42.119Z,9.10
2017-11-05T23:28:10.359Z,9.10
2017-11-05T23:30:38.629Z,9.30
2017-11-05T23:33:06.965Z,9.30
2017-11-05T23:35:35.237Z,9.30
2017-11-05T23:38:03.710Z,9.30
2017-11-05T23:40:31.960Z,9.10
2017-11-05T23:43:00.227Z,9.40
2017-11-05T23:45:28.502Z,9.10
2017-11-05T23:47:57.614Z,9.00
2017-11-05T23:50:25.887Z,9.10
2017-11-05T23:52:54.258Z,9.10
2017-11-05T23:55:22.548Z,9.00
2017-11-05T23:57:50.786Z,9.20
